createdAt,value
2022-08-28T00:00:16.938Z,421.2
2022-08-28T00:02:00.636Z,422.4
2022-08-28T00:03:44.332Z,424.5
2022-08-28T00:05:28.039Z,423.5
2022-08-28T00:07:11.750Z,424.4
2022-08-28T00:08:55.434Z,427.9
2022-08-28T00:10:39.142Z,431.2
2022-08-28T00:12:22.845Z,427.1
2022-08-28T00:14:06.543Z,426.1
2022-08-28T00:15:50.244Z,422.8
2022-08-28T00:17:33.954Z,420.4
2022-08-28T00:19:17.650Z,421.9
2022-08-28T00:21:01.356Z,423.5
2022-08-28T00:22:45.049Z,423.6
2022-08-28T00:24:28.754Z,423.6
2022-08-28T00:26:12.456Z,422.1
2022-08-28T00:27:56.154Z,421.8
2022-08-28T00:29:39.861Z,423.5
2022-08-28T00:31:23.559Z,425.7
2022-08-28T00:33:07.287Z,425.7
2022-08-28T00:34:50.954Z,421.8
2022-08-28T00:36:34.665Z,423.9
2022-08-28T00:38:18.366Z,424.8
2022-08-28T00:40:02.070Z,425.2
2022-08-28T00:41:45.764Z,424.7
2022-08-28T00:43:29.469Z,421
2022-08-28T00:45:13.169Z,421.5
2022-08-28T00:46:56.869Z,419.3
2022-08-28T00:48:40.570Z,420.5
2022-08-28T00:50:24.277Z,419.8
2022-08-28T00:52:07.974Z,417.8
2022-08-28T00:53:51.680Z,414.3
2022-08-28T00:55:35.377Z,415.2
2022-08-28T00:57:19.072Z,418.6
2022-08-28T00:59:02.773Z,418.9
2022-08-28T01:00:46.479Z,420
2022-08-28T01:02:30.189Z,419.4
2022-08-28T01:04:13.887Z,420.2
2022-08-28T01:05:57.587Z,417.6
2022-08-28T01:07:41.287Z,417.7
2022-08-28T01:09:25.006Z,415.3
2022-08-28T01:11:08.685Z,416.4
2022-08-28T01:12:52.387Z,417.7
2022-08-28T01:14:36.088Z,417.7
2022-08-28T01:16:19.786Z,418.4
2022-08-28T01:18:03.499Z,420.3
2022-08-28T01:19:47.194Z,421.2
2022-08-28T01:21:30.892Z,416.5
2022-08-28T01:23:14.609Z,417.1
2022-08-28T01:24:58.291Z,415.7
2022-08-28T01:26:42.003Z,414.5
2022-08-28T01:28:25.705Z,412.4
2022-08-28T01:30:09.389Z,411.1
2022-08-28T01:31:53.098Z,410.7
2022-08-28T01:33:36.813Z,411.7
2022-08-28T01:35:20.502Z,413.9
2022-08-28T01:37:04.212Z,415.8
2022-08-28T01:38:47.916Z,414.7
2022-08-28T01:40:31.611Z,415.8
2022-08-28T01:42:15.311Z,416.6
2022-08-28T01:43:59.006Z,416.1
2022-08-28T01:45:42.716Z,417.5
2022-08-28T01:47:26.419Z,420.5
2022-08-28T01:49:10.117Z,420.4
2022-08-28T01:50:53.816Z,420.3
2022-08-28T01:52:37.522Z,420.5
2022-08-28T01:54:21.224Z,420
2022-08-28T01:56:04.924Z,420.2
2022-08-28T01:57:48.630Z,420
2022-08-28T01:59:32.335Z,416.9
2022-08-28T02:01:16.041Z,415.2
2022-08-28T02:02:59.733Z,416.4
2022-08-28T02:04:43.436Z,416.7
2022-08-28T02:06:27.136Z,414.8
2022-08-28T02:08:10.530Z,414.5
2022-08-28T02:09:54.233Z,416.1
2022-08-28T02:11:37.932Z,416.6
2022-08-28T02:13:21.629Z,416.9
2022-08-28T02:15:05.329Z,419.2
2022-08-28T02:16:49.041Z,418.5
2022-08-28T02:18:32.742Z,417.5
2022-08-28T02:20:16.459Z,419.6
2022-08-28T02:22:00.139Z,424.4
2022-08-28T02:23:43.852Z,423.8
2022-08-28T02:25:27.545Z,425
2022-08-28T02:27:11.242Z,425.6
2022-08-28T02:28:54.944Z,427.2
2022-08-28T02:30:38.654Z,427.2
2022-08-28T02:32:22.346Z,426.6
2022-08-28T02:34:06.050Z,429.8
2022-08-28T02:35:49.760Z,427.5
2022-08-28T02:37:33.450Z,428.2
2022-08-28T02:39:17.154Z,431
2022-08-28T02:41:00.855Z,434.1
2022-08-28T02:42:44.561Z,429.6
2022-08-28T02:44:28.262Z,428.9
2022-08-28T02:46:11.963Z,427.9
2022-08-28T02:47:55.686Z,427.8
2022-08-28T02:49:39.369Z,428
2022-08-28T02:51:23.067Z,430.1
2022-08-28T02:53:06.768Z,429.4
2022-08-28T02:54:50.474Z,428.8
2022-08-28T02:56:34.169Z,428.5
2022-08-28T02:58:17.870Z,427.8
2022-08-28T03:00:01.577Z,425.3
2022-08-28T03:01:45.276Z,423.4
2022-08-28T03:03:28.991Z,419.2
2022-08-28T03:05:12.693Z,419.5
2022-08-28T03:06:56.382Z,420.3
2022-08-28T03:08:40.086Z,419.4
2022-08-28T03:10:23.782Z,423.1
2022-08-28T03:12:07.491Z,422.6
2022-08-28T03:13:51.191Z,420.6
2022-08-28T03:15:34.895Z,419.5
2022-08-28T03:17:18.603Z,417.8
2022-08-28T03:19:02.296Z,417.1
2022-08-28T03:20:46.000Z,416.6
2022-08-28T03:22:29.708Z,417.2
2022-08-28T03:24:13.401Z,417.4
2022-08-28T03:25:57.107Z,416.2
2022-08-28T03:27:40.809Z,417.9
2022-08-28T03:29:24.516Z,417
2022-08-28T03:31:08.209Z,416.3
2022-08-28T03:32:51.906Z,414.3
2022-08-28T03:34:35.610Z,412.8
2022-08-28T03:36:19.313Z,416.8
2022-08-28T03:38:03.013Z,411.5
2022-08-28T03:39:46.718Z,412.3
2022-08-28T03:41:30.421Z,414
2022-08-28T03:43:14.139Z,417
2022-08-28T03:44:57.822Z,416.8
2022-08-28T03:46:41.519Z,419.6
2022-08-28T03:48:25.226Z,420.7
2022-08-28T03:50:08.932Z,420.2
2022-08-28T03:51:52.622Z,423.3
2022-08-28T03:53:36.327Z,424.9
2022-08-28T03:55:20.029Z,427.4
2022-08-28T03:57:03.728Z,427.5
2022-08-28T03:58:47.431Z,421.6
2022-08-28T04:00:31.135Z,420.9
2022-08-28T04:02:14.827Z,421.5
2022-08-28T04:03:58.532Z,422.7
2022-08-28T04:05:42.237Z,423.9
2022-08-28T04:07:25.937Z,424.8
2022-08-28T04:09:09.647Z,424.3
2022-08-28T04:10:53.345Z,424
2022-08-28T04:12:37.060Z,424.8
2022-08-28T04:14:20.748Z,426.6
2022-08-28T04:16:04.446Z,424.7
2022-08-28T04:17:48.143Z,426.4
2022-08-28T04:19:31.847Z,427.4
2022-08-28T04:21:15.549Z,426
2022-08-28T04:22:59.251Z,422
2022-08-28T04:24:42.949Z,419.3
2022-08-28T04:26:26.657Z,418.1
2022-08-28T04:28:10.357Z,415.4
2022-08-28T04:29:54.049Z,416.1
2022-08-28T04:31:37.755Z,417.8
2022-08-28T04:33:21.462Z,421.5
2022-08-28T04:35:05.153Z,419.6
2022-08-28T04:36:48.864Z,419.4
2022-08-28T04:38:32.563Z,420.6
2022-08-28T04:40:16.261Z,421.7
2022-08-28T04:41:59.967Z,422.4
2022-08-28T04:43:43.665Z,427.3
2022-08-28T04:45:27.369Z,433.7
2022-08-28T04:47:11.069Z,434.9
2022-08-28T04:48:54.772Z,433.6
2022-08-28T04:50:38.477Z,429.6
2022-08-28T04:52:22.178Z,428.7
2022-08-28T04:55:49.585Z,435.1
2022-08-28T04:57:33.284Z,433.3
2022-08-28T04:59:16.983Z,431.2
2022-08-28T05:01:00.702Z,431.3
2022-08-28T05:02:44.391Z,431.5
2022-08-28T05:04:28.083Z,432.7
2022-08-28T05:06:11.789Z,428.9
2022-08-28T05:07:55.490Z,430.3
2022-08-28T05:09:39.196Z,432.9
2022-08-28T05:11:22.897Z,433.1
2022-08-28T05:13:06.595Z,434
2022-08-28T05:14:50.296Z,435.2
2022-08-28T05:16:33.996Z,434.3
2022-08-28T05:18:17.695Z,433.4
2022-08-28T05:20:01.408Z,432.6
2022-08-28T05:21:45.108Z,429.4
2022-08-28T05:23:28.806Z,428.2
2022-08-28T05:25:12.504Z,426.7
2022-08-28T05:26:56.221Z,429.7
2022-08-28T05:28:39.906Z,431.5
2022-08-28T05:30:23.610Z,427.4
2022-08-28T05:32:07.316Z,427.7
2022-08-28T05:33:51.017Z,431
2022-08-28T05:35:34.734Z,430.3
2022-08-28T05:37:18.410Z,427.8
2022-08-28T05:39:02.111Z,425.8
2022-08-28T05:40:45.819Z,425.9
2022-08-28T05:42:29.524Z,425.3
2022-08-28T05:44:13.222Z,426.3
2022-08-28T05:45:56.930Z,432.8
2022-08-28T05:47:40.620Z,431.6
2022-08-28T05:49:24.326Z,425.7
2022-08-28T05:51:08.029Z,425.3
2022-08-28T05:52:51.734Z,425
2022-08-28T05:54:35.439Z,426
2022-08-28T05:56:19.139Z,419.4
2022-08-28T05:58:02.846Z,420
2022-08-28T05:59:46.554Z,421.1
2022-08-28T06:01:30.243Z,423.6
2022-08-28T06:03:13.967Z,420.6
2022-08-28T06:04:57.656Z,418.2
2022-08-28T06:06:41.346Z,417.4
2022-08-28T06:08:25.054Z,417
2022-08-28T06:10:08.760Z,416.9
2022-08-28T06:11:52.486Z,418.2
2022-08-28T06:13:36.166Z,417.5
2022-08-28T06:15:19.864Z,417.1
2022-08-28T06:17:03.569Z,416.6
2022-08-28T06:18:47.270Z,416.1
2022-08-28T06:20:30.971Z,417.5
2022-08-28T06:22:14.673Z,415.6
2022-08-28T06:23:58.379Z,414.3
2022-08-28T06:25:42.075Z,420.2
2022-08-28T06:27:25.777Z,419.9
2022-08-28T06:29:09.481Z,420.5
2022-08-28T06:30:53.185Z,418.2
2022-08-28T06:32:36.890Z,417.3
2022-08-28T06:34:20.585Z,416.9
2022-08-28T06:36:04.291Z,417.2
2022-08-28T06:37:47.995Z,418.7
2022-08-28T06:39:31.692Z,420
2022-08-28T06:41:15.395Z,422.6
2022-08-28T06:42:59.116Z,422.5
2022-08-28T06:44:42.797Z,421.3
2022-08-28T06:46:26.494Z,418.7
2022-08-28T06:48:10.203Z,415.4
2022-08-28T06:49:53.909Z,412.6
2022-08-28T06:51:37.610Z,411.1
2022-08-28T06:53:21.307Z,409.7
2022-08-28T06:55:05.012Z,409.3
2022-08-28T06:56:48.713Z,411
2022-08-28T06:58:32.411Z,408.6
2022-08-28T07:00:16.113Z,407.4
2022-08-28T07:01:59.826Z,408
2022-08-28T07:03:43.512Z,410.8
2022-08-28T07:05:27.220Z,412
2022-08-28T07:07:10.922Z,413.1
2022-08-28T07:08:54.627Z,413.6
2022-08-28T07:10:38.330Z,411.2
2022-08-28T07:12:22.027Z,409
2022-08-28T07:14:05.730Z,409.2
2022-08-28T07:15:49.452Z,408.1
2022-08-28T07:17:33.165Z,409.6
2022-08-28T07:19:16.830Z,409.2
2022-08-28T07:21:00.540Z,410.7
2022-08-28T07:22:44.233Z,410.9
2022-08-28T07:24:27.945Z,410.4
2022-08-28T07:26:11.643Z,412
2022-08-28T07:27:55.338Z,413.2
2022-08-28T07:29:39.044Z,414.4
2022-08-28T07:31:22.745Z,415.5
2022-08-28T07:34:50.154Z,411.5
2022-08-28T07:36:33.856Z,411.4
2022-08-28T07:38:17.553Z,410.5
2022-08-28T07:40:01.266Z,406.5
2022-08-28T07:41:44.957Z,406.8
2022-08-28T07:43:28.653Z,408.8
2022-08-28T07:45:12.357Z,411.8
2022-08-28T07:46:56.052Z,411.2
2022-08-28T07:48:39.755Z,410.3
2022-08-28T07:50:23.462Z,410.4
2022-08-28T07:52:07.164Z,409
2022-08-28T07:53:50.860Z,409.1
2022-08-28T07:55:34.561Z,409.9
2022-08-28T07:57:18.265Z,411.7
2022-08-28T07:59:01.969Z,411.4
2022-08-28T08:00:45.671Z,409.7
2022-08-28T08:02:29.378Z,410.5
2022-08-28T08:04:13.078Z,412
2022-08-28T08:05:56.772Z,410.1
2022-08-28T08:07:40.476Z,409.8
2022-08-28T08:09:24.179Z,409.7
2022-08-28T08:11:07.880Z,408.7
2022-08-28T08:12:51.582Z,409.9
2022-08-28T08:14:35.281Z,410.7
2022-08-28T08:16:18.986Z,407.6
2022-08-28T08:19:46.388Z,402.3
2022-08-28T08:21:30.093Z,402.9
2022-08-28T08:23:13.795Z,405.9
2022-08-28T08:24:57.491Z,405.5
2022-08-28T08:26:41.197Z,406.5
2022-08-28T08:28:24.903Z,409.6
2022-08-28T08:30:08.596Z,410
2022-08-28T08:31:52.297Z,410.6
2022-08-28T08:33:35.994Z,410.7
2022-08-28T08:35:19.704Z,407
2022-08-28T08:37:03.399Z,405.2
2022-08-28T08:38:47.108Z,404.8
2022-08-28T08:40:30.804Z,403.9
2022-08-28T08:42:14.504Z,401.7
2022-08-28T08:43:58.199Z,399.9
2022-08-28T08:45:41.905Z,400.5
2022-08-28T08:47:25.607Z,400
2022-08-28T08:49:09.311Z,399.7
2022-08-28T08:50:53.007Z,402.2
2022-08-28T08:52:36.701Z,403.1
2022-08-28T08:54:20.415Z,406.4
2022-08-28T08:56:04.112Z,406.7
2022-08-28T08:57:47.810Z,405.4
2022-08-28T08:59:31.519Z,404.5
2022-08-28T09:01:15.226Z,404.4
2022-08-28T09:02:58.912Z,402.8
2022-08-28T09:04:42.619Z,401.5
2022-08-28T09:06:26.321Z,402.4
2022-08-28T09:08:10.037Z,400.8
2022-08-28T09:09:53.726Z,400.6
2022-08-28T09:11:37.425Z,400.9
2022-08-28T09:13:21.129Z,402.6
2022-08-28T09:15:04.858Z,406.2
2022-08-28T09:16:48.522Z,409
2022-08-28T09:18:32.230Z,409
2022-08-28T09:20:15.938Z,406.6
2022-08-28T09:21:59.628Z,406.2
2022-08-28T09:23:43.331Z,407
2022-08-28T09:25:27.040Z,405.9
2022-08-28T09:27:10.739Z,406
2022-08-28T09:28:54.439Z,405.6
2022-08-28T09:30:38.139Z,407.6
2022-08-28T09:32:21.853Z,407.7
2022-08-28T09:34:05.545Z,406.6
2022-08-28T09:35:49.240Z,406.2
2022-08-28T09:37:32.943Z,406.5
2022-08-28T09:39:16.644Z,410.1
2022-08-28T09:41:00.345Z,410.5
2022-08-28T09:42:44.049Z,408.6
2022-08-28T09:44:27.746Z,407.4
2022-08-28T09:46:11.446Z,406.9
2022-08-28T09:47:55.152Z,407.3
2022-08-28T09:49:38.845Z,405.2
2022-08-28T09:51:22.551Z,402.1
2022-08-28T09:53:06.257Z,399.9
2022-08-28T09:54:49.958Z,400.1
2022-08-28T09:56:33.658Z,400
2022-08-28T09:58:17.354Z,397
2022-08-28T10:00:01.067Z,396.5
2022-08-28T10:01:44.767Z,396.7
2022-08-28T10:03:28.469Z,397.8
2022-08-28T10:05:12.155Z,399.6
2022-08-28T10:06:55.865Z,403.8
2022-08-28T10:08:39.577Z,405.5
2022-08-28T10:10:23.276Z,408.8
2022-08-28T10:12:06.974Z,406.3
2022-08-28T10:13:50.680Z,405.5
2022-08-28T10:15:34.379Z,405.9
2022-08-28T10:17:18.077Z,401.9
2022-08-28T10:19:01.778Z,399.9
2022-08-28T10:20:45.483Z,396.1
2022-08-28T10:22:29.177Z,396.4
2022-08-28T10:24:12.888Z,398.3
2022-08-28T10:25:56.585Z,399.8
2022-08-28T10:27:40.276Z,400.3
2022-08-28T10:29:23.986Z,398.2
2022-08-28T10:31:07.688Z,398.7
2022-08-28T10:32:51.381Z,400.5
2022-08-28T10:34:35.084Z,400.7
2022-08-28T10:36:18.785Z,400
2022-08-28T10:38:02.488Z,400.1
2022-08-28T10:39:46.197Z,398.6
2022-08-28T10:41:29.886Z,398.1
2022-08-28T10:43:13.584Z,398.7
2022-08-28T10:44:57.294Z,398.2
2022-08-28T10:46:40.990Z,395.6
2022-08-28T10:48:24.693Z,393.7
2022-08-28T10:50:08.399Z,389.8
2022-08-28T10:51:52.090Z,389.7
2022-08-28T10:53:35.797Z,392.7
2022-08-28T10:55:19.504Z,391.8
2022-08-28T10:57:03.198Z,393.1
2022-08-28T10:58:46.898Z,393.6
2022-08-28T11:00:30.598Z,391.9
2022-08-28T11:02:14.301Z,393.6
2022-08-28T11:03:58.007Z,392.7
2022-08-28T11:05:41.698Z,393.6
2022-08-28T11:07:25.405Z,395.6
2022-08-28T11:09:09.115Z,395.1
2022-08-28T11:10:52.805Z,392
2022-08-28T11:12:36.512Z,389.4
2022-08-28T11:14:20.206Z,392.3
2022-08-28T11:16:03.913Z,398.6
2022-08-28T11:17:47.616Z,396.5
2022-08-28T11:19:31.310Z,395.8
2022-08-28T11:21:15.021Z,398.5
2022-08-28T11:22:58.715Z,400.6
2022-08-28T11:24:42.440Z,399.9
2022-08-28T11:26:26.130Z,401
2022-08-28T11:28:09.837Z,402.1
2022-08-28T11:29:53.540Z,403.3
2022-08-28T11:31:37.262Z,405.1
2022-08-28T11:33:20.931Z,405.5
2022-08-28T11:35:04.634Z,404.7
2022-08-28T11:36:48.341Z,402.5
2022-08-28T11:38:32.029Z,401.4
2022-08-28T11:40:15.736Z,398.9
2022-08-28T11:41:59.440Z,400
2022-08-28T11:43:43.143Z,403.6
2022-08-28T11:45:26.846Z,404.6
2022-08-28T11:47:10.541Z,408.7
2022-08-28T11:48:54.240Z,410.1
2022-08-28T11:50:37.944Z,412.2
2022-08-28T11:52:21.643Z,416.7
2022-08-28T11:54:05.350Z,419.5
2022-08-28T11:55:49.052Z,419.2
2022-08-28T11:57:32.748Z,418.5
2022-08-28T11:59:16.459Z,420
2022-08-28T12:01:00.156Z,416.7
2022-08-28T12:02:43.856Z,414.7
2022-08-28T12:04:27.560Z,414.9
2022-08-28T12:06:11.259Z,413
2022-08-28T12:07:54.966Z,409.1
2022-08-28T12:09:38.667Z,410.3
2022-08-28T12:11:22.365Z,413.2
2022-08-28T12:13:06.069Z,414.9
2022-08-28T12:16:33.479Z,410.6
2022-08-28T12:18:17.178Z,409.7
2022-08-28T12:20:00.882Z,409.3
2022-08-28T12:21:44.583Z,412.7
2022-08-28T12:23:28.283Z,409.8
2022-08-28T12:25:11.983Z,408.8
2022-08-28T12:26:55.689Z,408.7
2022-08-28T12:28:39.392Z,413.5
2022-08-28T12:30:23.089Z,418.4
2022-08-28T12:32:06.796Z,417.9
2022-08-28T12:33:50.514Z,418.9
2022-08-28T12:35:34.193Z,421.9
2022-08-28T12:37:17.901Z,422.6
2022-08-28T12:39:01.615Z,421.7
2022-08-28T12:40:45.308Z,424.4
2022-08-28T12:42:29.014Z,423.6
2022-08-28T12:44:12.699Z,419.5
2022-08-28T12:45:56.411Z,415.1
2022-08-28T12:47:40.117Z,416.1
2022-08-28T12:49:23.809Z,417.2
2022-08-28T12:51:07.524Z,417.9
2022-08-28T12:52:51.231Z,418.3
2022-08-28T12:54:34.912Z,416.8
2022-08-28T12:56:18.623Z,414.7
2022-08-28T12:58:02.321Z,413.2
2022-08-28T12:59:46.030Z,413.5
2022-08-28T13:01:29.729Z,412.1
2022-08-28T13:03:13.426Z,408.3
2022-08-28T13:04:57.133Z,407.9
2022-08-28T13:06:40.839Z,411.1
2022-08-28T13:08:24.534Z,413.8
2022-08-28T13:10:08.239Z,413.3
2022-08-28T13:11:51.941Z,413.9
2022-08-28T13:13:35.643Z,412.9
2022-08-28T13:15:19.361Z,414.2
2022-08-28T13:17:03.046Z,414.4
2022-08-28T13:18:46.758Z,413.7
2022-08-28T13:20:30.454Z,410.7
2022-08-28T13:22:14.146Z,410.3
2022-08-28T13:23:57.857Z,410.2
2022-08-28T13:25:41.563Z,409.1
2022-08-28T13:27:25.254Z,409.6
2022-08-28T13:29:08.961Z,408.1
2022-08-28T13:30:52.659Z,407.6
2022-08-28T13:32:36.364Z,406.8
2022-08-28T13:34:20.071Z,406.8
2022-08-28T13:36:03.762Z,404.8
2022-08-28T13:37:47.469Z,403.2
2022-08-28T13:39:31.179Z,401.1
2022-08-28T13:41:14.872Z,400.8
2022-08-28T13:42:58.582Z,405.3
2022-08-28T13:44:42.282Z,404.6
2022-08-28T13:46:25.995Z,407.9
2022-08-28T13:48:09.702Z,407.2
2022-08-28T13:49:53.390Z,407.3
2022-08-28T13:51:37.095Z,411.3
2022-08-28T13:55:04.492Z,420.5
2022-08-28T13:56:48.197Z,419.6
2022-08-28T13:58:31.904Z,421.4
2022-08-28T14:00:15.596Z,424.5
2022-08-28T14:01:59.300Z,424.3
2022-08-28T14:03:43.028Z,425.8
2022-08-28T14:05:26.708Z,427.6
2022-08-28T14:07:10.411Z,432.7
2022-08-28T14:08:54.105Z,443.2
2022-08-28T14:10:37.810Z,446.9
2022-08-28T14:12:21.519Z,446.8
2022-08-28T14:14:05.215Z,445.3
2022-08-28T14:15:48.917Z,444.7
2022-08-28T14:17:32.624Z,443.5
2022-08-28T14:19:16.318Z,443.7
2022-08-28T14:21:00.025Z,447.2
2022-08-28T14:22:43.746Z,447.1
2022-08-28T14:24:27.433Z,450
2022-08-28T14:26:11.133Z,451.9
2022-08-28T14:27:54.834Z,453.5
2022-08-28T14:29:38.542Z,452.4
2022-08-28T14:31:22.242Z,451.2
2022-08-28T14:33:05.940Z,453.2
2022-08-28T14:34:49.643Z,460.9
2022-08-28T14:36:33.347Z,465.7
2022-08-28T14:38:17.041Z,468.5
2022-08-28T14:40:00.747Z,468
2022-08-28T14:41:44.448Z,467.5
2022-08-28T14:43:28.151Z,468.1
2022-08-28T14:45:11.856Z,474.3
2022-08-28T14:46:55.554Z,475.6
2022-08-28T14:48:39.254Z,472.3
2022-08-28T14:50:22.967Z,472.1
2022-08-28T14:52:06.659Z,472.5
2022-08-28T14:53:50.361Z,474.8
2022-08-28T14:55:34.069Z,474.9
2022-08-28T14:57:17.763Z,477.2
2022-08-28T14:59:01.490Z,478.6
2022-08-28T15:00:45.169Z,478.3
2022-08-28T15:02:28.876Z,480.9
2022-08-28T15:04:12.571Z,484.3
2022-08-28T15:05:56.275Z,487.6
2022-08-28T15:07:39.984Z,486.8
2022-08-28T15:09:23.684Z,489.7
2022-08-28T15:11:07.376Z,487.2
2022-08-28T15:12:51.084Z,490.4
2022-08-28T15:14:34.799Z,492.3
2022-08-28T15:16:18.493Z,493.3
2022-08-28T15:18:02.193Z,493.5
2022-08-28T15:19:45.903Z,492.7
2022-08-28T15:21:29.597Z,492.9
2022-08-28T15:23:13.316Z,495.3
2022-08-28T15:24:57.005Z,507.5
2022-08-28T15:26:40.707Z,516.3
2022-08-28T15:28:24.412Z,521.2
2022-08-28T15:31:51.814Z,519.6
2022-08-28T15:33:35.521Z,519.6
2022-08-28T15:35:19.217Z,524
2022-08-28T15:37:02.921Z,525.3
2022-08-28T15:38:46.629Z,523.7
2022-08-28T15:40:30.336Z,522.7
2022-08-28T15:42:14.030Z,523.7
2022-08-28T15:43:57.734Z,524.8
2022-08-28T15:45:41.435Z,524.8
2022-08-28T15:47:25.134Z,523.7
2022-08-28T15:49:08.835Z,522.3
2022-08-28T15:50:52.538Z,519.7
2022-08-28T15:52:36.242Z,519.7
2022-08-28T15:54:19.945Z,521
2022-08-28T15:56:03.645Z,521.2
2022-08-28T15:57:47.344Z,517.3
2022-08-28T15:59:31.054Z,514.4
2022-08-28T16:01:14.754Z,516.8
2022-08-28T16:02:58.451Z,516
2022-08-28T16:04:42.151Z,514.2
2022-08-28T16:06:25.867Z,513.8
2022-08-28T16:08:09.551Z,512.5
2022-08-28T16:09:53.262Z,513.4
2022-08-28T16:11:36.971Z,513.1
2022-08-28T16:13:20.674Z,511.8
2022-08-28T16:15:04.373Z,513.4
2022-08-28T16:16:48.073Z,514.3
2022-08-28T16:18:31.773Z,512.7
2022-08-28T16:20:15.478Z,513.5
2022-08-28T16:21:59.192Z,513.3
2022-08-28T16:23:42.884Z,511.3
2022-08-28T16:25:26.586Z,508.4
2022-08-28T16:27:10.289Z,506.8
2022-08-28T16:28:54.055Z,500.9
2022-08-28T16:30:37.692Z,500.3
2022-08-28T16:32:21.450Z,500.1
2022-08-28T16:34:05.104Z,497.7
2022-08-28T16:35:48.796Z,499.6
2022-08-28T16:37:32.500Z,498.9
2022-08-28T16:39:16.212Z,497.8
2022-08-28T16:40:59.899Z,495.8
2022-08-28T16:42:43.610Z,495.9
2022-08-28T16:44:27.321Z,498.7
2022-08-28T16:46:11.011Z,497.9
2022-08-28T16:47:54.725Z,499
2022-08-28T16:49:38.415Z,498.5
2022-08-28T16:51:22.119Z,499.1
2022-08-28T16:53:05.828Z,499.6
2022-08-28T16:54:49.525Z,494.9
2022-08-28T16:56:33.229Z,492.8
2022-08-28T16:58:16.934Z,494.1
2022-08-28T17:00:00.634Z,494.9
2022-08-28T17:01:44.333Z,494.7
2022-08-28T17:03:28.037Z,496.6
2022-08-28T17:05:11.738Z,496
2022-08-28T17:06:55.445Z,491.7
2022-08-28T17:08:39.139Z,489.7
2022-08-28T17:10:22.843Z,489.9
2022-08-28T17:12:06.546Z,488.5
2022-08-28T17:13:50.240Z,486.8
2022-08-28T17:15:33.946Z,482.3
2022-08-28T17:17:17.657Z,478.6
2022-08-28T17:19:01.351Z,479.5
2022-08-28T17:20:45.055Z,481.8
2022-08-28T17:22:28.762Z,480.7
2022-08-28T17:24:12.466Z,480.8
2022-08-28T17:25:56.197Z,481.3
2022-08-28T17:27:39.860Z,482.4
2022-08-28T17:29:23.567Z,483.9
2022-08-28T17:31:07.275Z,486.9
2022-08-28T17:32:50.971Z,486.8
2022-08-28T17:34:34.679Z,483.3
2022-08-28T17:36:18.380Z,480.1
2022-08-28T17:38:02.076Z,474.4
2022-08-28T17:39:45.775Z,466.9
2022-08-28T17:41:29.484Z,452.8
2022-08-28T17:43:13.182Z,448
2022-08-28T17:44:56.888Z,447.1
2022-08-28T17:46:40.588Z,438.6
2022-08-28T17:48:24.299Z,435.3
2022-08-28T17:50:08.003Z,433.4
2022-08-28T17:51:51.689Z,432.3
2022-08-28T17:53:35.398Z,432.2
2022-08-28T17:55:19.104Z,429.6
2022-08-28T17:57:02.828Z,428.5
2022-08-28T17:58:46.508Z,424.3
2022-08-28T18:00:30.201Z,418.5
2022-08-28T18:02:13.906Z,414.8
2022-08-28T18:03:57.618Z,415.3
2022-08-28T18:05:41.308Z,412.8
2022-08-28T18:07:25.012Z,408.4
2022-08-28T18:09:08.720Z,406.6
2022-08-28T18:10:52.414Z,405.9
2022-08-28T18:12:36.120Z,402.2
2022-08-28T18:14:19.814Z,401.4
2022-08-28T18:16:03.522Z,400.6
2022-08-28T18:17:47.231Z,401.2
2022-08-28T18:19:30.925Z,399
2022-08-28T18:21:14.633Z,397.2
2022-08-28T18:22:58.331Z,398.1
2022-08-28T18:24:42.031Z,401.8
2022-08-28T18:26:25.736Z,401.6
2022-08-28T18:28:09.447Z,400
2022-08-28T18:29:53.139Z,396.6
2022-08-28T18:31:36.846Z,396.2
2022-08-28T18:33:20.542Z,396
2022-08-28T18:35:04.284Z,392
2022-08-28T18:36:47.948Z,391.1
2022-08-28T18:38:31.651Z,390.4
2022-08-28T18:40:15.356Z,391.2
2022-08-28T18:41:59.057Z,392.6
2022-08-28T18:43:42.743Z,395.2
2022-08-28T18:45:26.446Z,395.6
2022-08-28T18:47:10.149Z,395.3
2022-08-28T18:48:53.860Z,398.1
2022-08-28T18:50:37.559Z,399.1
2022-08-28T18:52:21.264Z,397.9
2022-08-28T18:54:04.958Z,396
2022-08-28T18:55:48.663Z,395.8
2022-08-28T18:57:32.361Z,400.2
2022-08-28T18:59:16.062Z,400.9
2022-08-28T19:00:59.767Z,400.4
2022-08-28T19:02:43.466Z,400.4
2022-08-28T19:04:27.166Z,403.5
2022-08-28T19:06:10.874Z,403.8
2022-08-28T19:07:54.576Z,405.1
2022-08-28T19:09:38.276Z,403
2022-08-28T19:11:21.971Z,403
2022-08-28T19:13:05.669Z,406.4
2022-08-28T19:14:49.382Z,408.7
2022-08-28T19:16:33.062Z,407.5
2022-08-28T19:18:16.769Z,407.4
2022-08-28T19:20:00.476Z,409.8
2022-08-28T19:21:44.176Z,409.3
2022-08-28T19:23:27.880Z,406.3
2022-08-28T19:25:11.581Z,406.7
2022-08-28T19:26:55.283Z,406.1
2022-08-28T19:28:38.984Z,407.4
2022-08-28T19:30:22.680Z,402
2022-08-28T19:32:06.381Z,401
2022-08-28T19:33:50.090Z,399.4
2022-08-28T19:35:33.790Z,396.8
2022-08-28T19:37:17.488Z,396
2022-08-28T19:39:01.196Z,393.8
2022-08-28T19:40:44.896Z,392.8
2022-08-28T19:42:28.597Z,391.1
2022-08-28T19:44:12.292Z,387.1
2022-08-28T19:45:56.000Z,391.2
2022-08-28T19:47:39.704Z,394.6
2022-08-28T19:49:23.402Z,394.3
2022-08-28T19:51:07.121Z,396.1
2022-08-28T19:52:50.807Z,398.8
2022-08-28T19:54:34.511Z,401.5
2022-08-28T19:56:18.221Z,402.1
2022-08-28T19:58:01.904Z,405.8
2022-08-28T19:59:45.617Z,405.8
2022-08-28T20:01:29.321Z,405.6
2022-08-28T20:03:13.005Z,406.9
2022-08-28T20:04:56.709Z,410.6
2022-08-28T20:06:40.414Z,413.3
2022-08-28T20:08:24.125Z,415.5
2022-08-28T20:10:07.825Z,415.4
2022-08-28T20:11:51.524Z,416.1
2022-08-28T20:13:35.238Z,416.9
2022-08-28T20:15:18.946Z,421.6
2022-08-28T20:17:02.642Z,421.7
2022-08-28T20:18:46.337Z,424.4
2022-08-28T20:20:30.042Z,426.7
2022-08-28T20:22:13.753Z,426.3
2022-08-28T20:23:57.449Z,426.2
2022-08-28T20:25:41.138Z,422.2
2022-08-28T20:27:24.845Z,420.4
2022-08-28T20:29:08.550Z,417.1
2022-08-28T20:30:52.237Z,415.5
2022-08-28T20:32:35.946Z,413.7
2022-08-28T20:34:19.651Z,415
2022-08-28T20:36:03.350Z,417.8
2022-08-28T20:37:47.053Z,419.2
2022-08-28T20:39:30.759Z,422
2022-08-28T20:41:14.451Z,424.3
2022-08-28T20:42:58.155Z,419.3
2022-08-28T20:44:41.856Z,417.7
2022-08-28T20:46:25.565Z,418.7
2022-08-28T20:48:09.272Z,417.5
2022-08-28T20:49:52.973Z,416.4
2022-08-28T20:51:36.671Z,417.7
2022-08-28T20:53:20.379Z,416.2
2022-08-28T20:55:04.072Z,418.2
2022-08-28T20:56:47.790Z,413.3
2022-08-28T20:58:31.487Z,412.9
2022-08-28T21:00:15.186Z,413.8
2022-08-28T21:01:58.889Z,411
2022-08-28T21:03:42.604Z,410
2022-08-28T21:05:26.290Z,407.9
2022-08-28T21:07:09.995Z,407.1
2022-08-28T21:08:53.688Z,407.3
2022-08-28T21:10:37.392Z,407.1
2022-08-28T21:12:21.131Z,406.4
2022-08-28T21:14:04.789Z,406.9
2022-08-28T21:15:48.512Z,410.6
2022-08-28T21:17:32.196Z,412.1
2022-08-28T21:19:15.901Z,411.3
2022-08-28T21:20:59.603Z,411.4
2022-08-28T21:22:43.307Z,411.8
2022-08-28T21:24:27.006Z,408.7
2022-08-28T21:26:10.716Z,407.9
2022-08-28T21:27:54.403Z,411
2022-08-28T21:29:38.116Z,416.3
2022-08-28T21:31:21.807Z,417.7
2022-08-28T21:33:05.510Z,417.5
2022-08-28T21:34:49.224Z,417.3
2022-08-28T21:36:32.913Z,415.2
2022-08-28T21:38:16.618Z,416.3
2022-08-28T21:40:00.322Z,413.4
2022-08-28T21:41:44.018Z,411.7
2022-08-28T21:43:27.718Z,413.9
2022-08-28T21:45:11.420Z,414.1
2022-08-28T21:46:55.119Z,410.7
2022-08-28T21:48:38.834Z,409.3
2022-08-28T21:50:22.521Z,408.8
2022-08-28T21:52:06.217Z,410.4
2022-08-28T21:53:49.921Z,411.7
2022-08-28T21:55:33.630Z,413.5
2022-08-28T21:57:17.329Z,412.4
2022-08-28T21:59:01.036Z,408.6
2022-08-28T22:00:44.731Z,406.3
2022-08-28T22:02:28.434Z,407.3
2022-08-28T22:04:12.143Z,411.1
2022-08-28T22:05:55.830Z,410.9
2022-08-28T22:07:39.537Z,409.2
2022-08-28T22:09:23.244Z,407.9
2022-08-28T22:11:06.936Z,407.5
2022-08-28T22:12:50.642Z,411
2022-08-28T22:14:34.347Z,410.8
2022-08-28T22:16:18.045Z,409
2022-08-28T22:18:01.758Z,409.1
2022-08-28T22:19:45.454Z,406.3
2022-08-28T22:21:29.154Z,406.9
2022-08-28T22:23:12.853Z,406.7
2022-08-28T22:24:56.550Z,406.5
2022-08-28T22:26:40.255Z,406.3
2022-08-28T22:28:23.958Z,408.7
2022-08-28T22:30:07.658Z,409.2
2022-08-28T22:31:51.362Z,411.8
2022-08-28T22:33:35.057Z,410.5